Time;durP1;ratioP1;P1;durP2;ratioP2;P2;SDS_P1;SDS_P2;PMS_P1;PMS_P2;Temp;Humidity;BMP_temperature;BMP_pressure;BME280_temperature;BME280_humidity;BME280_pressure;Samples;Min_cycle;Max_cycle;Signal;HPM_P1;HPM_P2
2022/05/15 00:00:38;;;;;;;6.13;4.72;;;;;;;24.12;58.11;101224.78;4996892;28;20450;-82
2022/05/15 00:03:09;;;;;;;5.95;4.90;;;;;;;24.11;57.69;101223.94;4995177;28;20050;-82
2022/05/15 00:05:37;;;;;;;9.38;5.22;;;;;;;24.12;57.69;101232.88;4994867;28;20061;-82
2022/05/15 00:08:05;;;;;;;5.22;4.70;;;;;;;24.10;57.95;101233.03;4995865;28;20406;-82
2022/05/15 00:10:32;;;;;;;5.50;4.90;;;;;;;24.11;57.89;101245.56;4993140;28;20050;-82
2022/05/15 00:13:00;;;;;;;6.82;5.20;;;;;;;24.11;57.77;101234.75;4994779;28;20050;-82
2022/05/15 00:15:31;;;;;;;5.82;5.07;;;;;;;24.11;57.94;101228.50;4993334;28;20435;-83
2022/05/15 00:17:58;;;;;;;7.03;5.22;;;;;;;24.10;58.19;101222.19;4994983;28;20402;-83
2022/05/15 00:20:26;;;;;;;7.82;5.20;;;;;;;24.11;57.88;101231.19;4992584;28;20054;-83
2022/05/15 00:22:54;;;;;;;6.00;4.72;;;;;;;24.10;58.00;101227.59;4993845;28;20497;-82
2022/05/15 00:25:22;;;;;;;6.82;5.30;;;;;;;24.11;58.07;101228.50;4976587;28;20486;-82
2022/05/15 00:27:50;;;;;;;6.55;5.53;;;;;;;24.11;58.01;101223.06;4994157;28;20398;-82
2022/05/15 00:30:19;;;;;;;9.48;5.75;;;;;;;24.10;58.03;101226.75;4994944;28;20054;-81
2022/05/15 00:32:48;;;;;;;7.22;5.50;;;;;;;24.11;57.87;101223.06;4978799;28;20398;-81
2022/05/15 00:35:16;;;;;;;5.63;5.10;;;;;;;24.10;57.87;101227.59;4995502;28;20073;-81
2022/05/15 00:37:43;;;;;;;6.45;5.70;;;;;;;24.10;58.17;101227.59;4995106;28;20122;-81
2022/05/15 00:40:12;;;;;;;7.18;5.07;;;;;;;24.10;58.09;101230.31;4996575;28;20050;-81
2022/05/15 00:42:40;;;;;;;7.20;5.30;;;;;;;24.10;58.06;101224.06;5009740;28;20062;-81
2022/05/15 00:45:09;;;;;;;6.53;5.60;;;;;;;24.10;58.21;101232.16;4993359;28;20447;-81
2022/05/15 00:47:37;;;;;;;7.65;5.13;;;;;;;24.09;58.34;101236.75;4994198;28;20054;-82
2022/05/15 00:50:09;;;;;;;9.48;5.82;;;;;;;24.09;57.72;101228.63;4994330;28;20047;-81
2022/05/15 00:52:40;;;;;;;5.97;5.38;;;;;;;24.09;57.99;101231.31;4992421;28;20050;-82
2022/05/15 00:55:21;;;;;;;10.50;4.93;;;;;;;24.10;58.03;101235.72;4994714;28;20054;-81
2022/05/15 00:57:59;;;;;;;7.32;5.57;;;;;;;24.09;58.21;101230.47;4992578;28;20051;-81
2022/05/15 01:00:28;;;;;;;7.72;5.57;;;;;;;24.11;58.20;101231.19;4993108;28;20398;-82
2022/05/15 01:03:18;;;;;;;5.90;4.88;;;;;;;24.09;58.23;101239.44;4993119;28;20418;-82
2022/05/15 01:05:52;;;;;;;6.90;5.38;;;;;;;24.09;58.21;101236.75;4993023;28;20058;-82
2022/05/15 01:08:27;;;;;;;6.82;5.57;;;;;;;24.09;58.20;101233.19;4994105;28;20517;-83
2022/05/15 01:11:05;;;;;;;7.78;5.07;;;;;;;24.09;58.26;101238.59;4994154;28;20498;-83
2022/05/15 01:13:35;;;;;;;6.07;5.35;;;;;;;24.09;58.10;101234.03;4994180;28;20077;-83
2022/05/15 01:16:05;;;;;;;7.93;4.85;;;;;;;24.09;58.04;101241.31;4993805;28;20057;-83
2022/05/15 01:18:35;;;;;;;6.30;5.70;;;;;;;24.09;58.24;101244.00;4992382;28;20057;-83
2022/05/15 01:21:38;;;;;;;6.75;6.03;;;;;;;24.09;58.06;101235.88;4989242;28;20119;-82
2022/05/15 01:24:07;;;;;;;7.45;5.53;;;;;;;24.09;57.99;101236.75;5006767;28;20065;-82
2022/05/15 01:26:37;;;;;;;6.63;5.72;;;;;;;24.10;58.12;101243.00;4994743;28;20046;-82
2022/05/15 01:29:07;;;;;;;7.22;5.57;;;;;;;24.09;58.37;101242.16;4997528;28;20054;-82
2022/05/15 01:31:36;;;;;;;6.15;5.47;;;;;;;24.09;58.23;101236.75;4998844;28;20046;-82
2022/05/15 01:34:09;;;;;;;6.90;5.38;;;;;;;24.09;58.12;101242.16;4997685;28;20057;-80
2022/05/15 01:36:39;;;;;;;6.85;5.53;;;;;;;24.09;58.13;101241.31;4996943;28;20383;-80
2022/05/15 01:39:06;;;;;;;7.35;5.88;;;;;;;24.09;58.19;101236.75;4997437;28;20050;-80
2022/05/15 01:41:34;;;;;;;7.35;6.00;;;;;;;24.09;58.13;101236.75;4997233;28;20054;-80
2022/05/15 01:44:02;;;;;;;6.75;6.07;;;;;;;24.09;58.13;101234.03;4996930;28;20051;-80
2022/05/15 01:46:30;;;;;;;9.60;5.82;;;;;;;24.09;58.32;101235.88;4996208;28;20054;-81
2022/05/15 01:49:06;;;;;;;6.97;5.70;;;;;;;24.10;58.19;101237.59;4995624;28;20051;-80
2022/05/15 01:51:39;;;;;;;7.47;6.20;;;;;;;24.09;57.91;101236.75;4995804;28;20126;-81
2022/05/15 01:54:07;;;;;;;7.18;6.45;;;;;;;24.09;58.20;101239.44;4998540;28;20379;-81
2022/05/15 01:56:36;;;;;;;6.10;5.50;;;;;;;24.09;58.23;101231.31;4997006;28;20087;-81
2022/05/15 01:59:04;;;;;;;6.50;5.82;;;;;;;24.09;58.33;101233.19;4996786;28;20058;-81
2022/05/15 02:01:33;;;;;;;6.68;5.88;;;;;;;24.08;58.08;101235.03;4996870;28;20054;-81
2022/05/15 02:04:00;;;;;;;7.05;5.65;;;;;;;24.08;57.86;101237.75;4996549;28;20058;-81
2022/05/15 02:06:28;;;;;;;6.43;5.82;;;;;;;24.10;57.78;101234.88;4997220;28;20502;-81
2022/05/15 02:08:56;;;;;;;8.57;6.07;;;;;;;24.08;58.21;101224.22;4996194;28;20050;-81
2022/05/15 02:11:24;;;;;;;6.75;5.50;;;;;;;24.08;57.85;101232.34;4995434;28;20406;-81
2022/05/15 02:13:52;;;;;;;7.22;6.00;;;;;;;24.09;57.93;101230.47;4997649;28;20065;-81
2022/05/15 02:16:19;;;;;;;7.20;5.50;;;;;;;24.09;57.90;101231.31;4996763;28;20046;-82
2022/05/15 02:18:47;;;;;;;6.93;5.60;;;;;;;24.08;57.97;101235.03;4996574;28;20050;-83
2022/05/15 02:21:14;;;;;;;6.70;5.68;;;;;;;24.08;58.15;101224.22;4996471;28;20054;-82
2022/05/15 02:23:42;;;;;;;7.03;5.82;;;;;;;24.08;58.08;101232.34;4999399;28;20054;-82
2022/05/15 02:26:10;;;;;;;9.82;5.90;;;;;;;24.09;58.00;101227.78;4997877;28;20050;-81
2022/05/15 02:28:39;;;;;;;7.10;5.90;;;;;;;24.09;58.23;101231.31;4996897;28;20050;-80
2022/05/15 02:31:06;;;;;;;7.30;6.60;;;;;;;24.09;58.36;101233.19;4996216;28;20058;-81
2022/05/15 02:33:35;;;;;;;6.63;5.90;;;;;;;24.08;58.24;101223.38;4994823;28;20058;-81
2022/05/15 02:36:03;;;;;;;7.72;6.10;;;;;;;24.09;57.88;101216.94;4994905;28;20046;-81
2022/05/15 02:38:32;;;;;;;6.38;5.65;;;;;;;24.09;57.93;101225.06;4995891;28;20493;-81
2022/05/15 02:40:59;;;;;;;6.38;5.55;;;;;;;24.08;58.26;101224.22;4996123;28;20054;-81
2022/05/15 02:43:27;;;;;;;8.07;6.43;;;;;;;24.09;58.03;101230.47;4996152;28;20518;-81
2022/05/15 02:45:55;;;;;;;7.35;5.47;;;;;;;24.08;58.06;101226.09;4996208;28;20043;-81
2022/05/15 02:51:11;;;;;;;7.40;6.38;;;;;;;24.07;58.24;101233.34;4997279;28;20049;-81
2022/05/15 02:53:42;;;;;;;6.38;5.68;;;;;;;24.08;58.04;101235.03;4995976;28;20058;-81
2022/05/15 02:56:17;;;;;;;8.20;6.10;;;;;;;24.09;58.27;101235.88;4996037;28;20121;-81
2022/05/15 02:58:44;;;;;;;10.98;6.57;;;;;;;24.08;58.02;101229.63;4997152;28;20050;-81
2022/05/15 03:01:13;;;;;;;6.30;5.63;;;;;;;24.08;57.75;101240.44;4996431;28;20061;-82
2022/05/15 03:03:41;;;;;;;7.25;5.97;;;;;;;24.07;57.85;101236.06;4996956;28;20062;-82
2022/05/15 03:06:09;;;;;;;7.50;6.78;;;;;;;24.08;58.14;101237.75;4996841;28;20053;-81
2022/05/15 03:08:44;;;;;;;6.32;5.72;;;;;;;24.07;57.97;101238.75;4997813;28;20054;-82
2022/05/15 03:11:12;;;;;;;9.30;5.85;;;;;;;24.08;58.32;101248.56;4995975;28;20062;-82
2022/05/15 03:13:41;;;;;;;10.57;5.97;;;;;;;24.06;58.22;101245.16;4993933;28;20525;-82
2022/05/15 03:16:11;;;;;;;6.68;5.72;;;;;;;24.07;58.00;101243.31;4994394;28;20053;-81
2022/05/15 03:18:47;;;;;;;10.02;5.78;;;;;;;24.07;58.24;101255.00;4994473;28;20054;-81
2022/05/15 03:21:28;;;;;;;6.63;5.97;;;;;;;24.07;58.16;101249.56;4995053;28;20061;-80
2022/05/15 03:24:08;;;;;;;;;;;;;;;24.08;58.37;101250.44;4995578;28;20054;-80
2022/05/15 03:26:39;;;;;;;8.18;6.07;;;;;;;24.07;57.94;101254.13;4996687;28;20301;-80
2022/05/15 03:29:08;;;;;;;9.45;6.53;;;;;;;24.06;57.88;101247.00;4996561;28;20042;-80
2022/05/15 03:31:36;;;;;;;7.50;5.78;;;;;;;24.07;58.28;101256.84;4994813;28;20379;-81
2022/05/15 03:34:05;;;;;;;8.07;5.85;;;;;;;24.07;57.84;101257.69;4994772;28;20110;-81
2022/05/15 03:36:33;;;;;;;7.07;6.38;;;;;;;24.07;58.03;101259.56;5011045;28;20054;-81
2022/05/15 03:39:01;;;;;;;7.05;6.40;;;;;;;24.07;58.18;101256.84;4995101;28;20050;-81
2022/05/15 03:41:28;;;;;;;6.97;5.78;;;;;;;24.06;58.17;101258.66;4994386;28;20058;-81
2022/05/15 03:43:55;;;;;;;8.88;6.28;;;;;;;24.07;58.06;101252.28;4995656;28;20042;-82
2022/05/15 03:46:23;;;;;;;7.38;5.80;;;;;;;24.06;57.98;101253.25;4993863;28;20414;-82
2022/05/15 03:48:50;;;;;;;9.68;5.90;;;;;;;24.06;57.73;101255.97;5010443;28;20529;-82
2022/05/15 03:51:18;;;;;;;6.97;6.20;;;;;;;24.06;57.95;101252.41;4993682;28;20050;-82
2022/05/15 03:53:45;;;;;;;7.25;6.35;;;;;;;24.05;57.90;101251.56;4995798;28;20046;-82
2022/05/15 03:56:13;;;;;;;9.25;6.22;;;;;;;24.06;57.87;101252.41;4994216;28;20050;-82
2022/05/15 03:58:41;;;;;;;6.65;5.25;;;;;;;24.06;57.96;101249.72;4994811;28;20529;-81
2022/05/15 04:01:08;;;;;;;7.78;6.65;;;;;;;24.06;57.73;101252.41;5010661;28;20054;-81
2022/05/15 04:03:35;;;;;;;7.70;5.80;;;;;;;24.06;57.70;101252.41;4995883;28;20384;-81
2022/05/15 04:06:03;;;;;;;6.90;6.20;;;;;;;24.04;57.58;101252.59;4995782;28;20054;-81
2022/05/15 04:08:30;;;;;;;8.00;6.35;;;;;;;24.05;57.66;101256.13;4996048;28;20047;-82
2022/05/15 04:10:58;;;;;;;7.35;6.47;;;;;;;24.04;57.81;101255.28;4994795;28;20057;-82
2022/05/15 04:13:26;;;;;;;8.18;6.35;;;;;;;24.05;57.79;101256.13;5010838;28;20087;-81
2022/05/15 04:15:54;;;;;;;8.25;6.22;;;;;;;24.04;57.78;101257.16;4995326;28;20042;-81
2022/05/15 04:18:21;;;;;;;11.00;6.20;;;;;;;24.04;57.76;101260.69;4994142;28;20046;-82
2022/05/15 04:20:48;;;;;;;8.15;6.13;;;;;;;24.05;57.85;101270.50;5010099;28;20046;-81
2022/05/15 04:23:16;;;;;;;7.13;6.28;;;;;;;24.04;57.86;101271.50;4994333;28;20084;-81
2022/05/15 04:25:43;;;;;;;6.93;6.22;;;;;;;24.05;57.54;101275.91;5010283;28;20414;-81
2022/05/15 04:28:10;;;;;;;7.03;6.28;;;;;;;24.05;57.69;101264.25;4994419;28;20046;-81
2022/05/15 04:30:38;;;;;;;6.88;5.88;;;;;;;24.04;57.57;101270.66;4992766;28;20050;-82
2022/05/15 04:33:05;;;;;;;7.35;5.82;;;;;;;24.04;57.70;101274.22;4992467;28;20058;-82
2022/05/15 04:35:34;;;;;;;7.43;5.88;;;;;;;24.04;57.77;101273.38;4994743;28;20406;-82
2022/05/15 04:38:01;;;;;;;7.43;5.60;;;;;;;24.04;57.50;101274.22;4995054;28;20115;-80
2022/05/15 04:40:29;;;;;;;9.68;6.68;;;;;;;24.05;57.76;101277.78;4995736;28;20057;-80
2022/05/15 04:42:56;;;;;;;6.82;5.85;;;;;;;24.04;57.32;101285.03;4995091;28;20056;-80
2022/05/15 04:45:23;;;;;;;9.18;6.18;;;;;;;24.04;57.63;101284.19;4994655;28;20486;-80
2022/05/15 04:47:51;;;;;;;8.23;6.03;;;;;;;24.03;57.59;101294.16;4993664;28;20045;-80
2022/05/15 04:50:20;;;;;;;22.20;6.10;;;;;;;24.04;57.40;101289.59;4994514;28;20050;-80
2022/05/15 04:52:47;;;;;;;6.95;5.90;;;;;;;24.04;57.61;101293.16;5009742;28;20490;-80
2022/05/15 04:55:16;;;;;;;5.97;5.22;;;;;;;24.03;57.25;101296.03;4995290;28;20046;-80
2022/05/15 04:57:44;;;;;;;6.20;5.60;;;;;;;24.03;57.61;101298.72;4986718;28;20050;-80
2022/05/15 05:00:17;;;;;;;6.35;5.75;;;;;;;24.04;57.29;101303.13;4975291;28;20057;-81
2022/05/15 05:02:46;;;;;;;6.93;5.53;;;;;;;24.03;57.54;101304.97;4978208;28;20415;-80
2022/05/15 05:05:14;;;;;;;8.35;6.13;;;;;;;24.04;57.25;101311.25;4979899;28;20403;-80
2022/05/15 05:07:42;;;;;;;6.28;5.68;;;;;;;24.03;57.52;101313.09;4979717;28;20049;-80
2022/05/15 05:10:11;;;;;;;6.50;5.80;;;;;;;24.04;57.20;101313.94;4980405;28;20055;-81
2022/05/15 05:12:39;;;;;;;5.45;4.95;;;;;;;24.03;57.42;101321.22;4978984;28;20058;-81
2022/05/15 05:15:09;;;;;;;6.45;5.40;;;;;;;24.04;57.27;101322.06;4979541;28;20054;-81
2022/05/15 05:17:36;;;;;;;8.77;6.43;;;;;;;24.03;57.25;101326.63;4978363;28;20043;-81
2022/05/15 05:20:04;;;;;;;7.38;6.03;;;;;;;24.02;57.43;101319.47;4978624;28;20116;-82
2022/05/15 05:22:32;;;;;;;6.88;5.85;;;;;;;24.03;57.37;101329.31;4977845;28;20057;-82
2022/05/15 05:24:59;;;;;;;7.22;6.25;;;;;;;24.03;57.09;101323.06;4983487;28;20057;-81
2022/05/15 05:27:26;;;;;;;7.15;5.57;;;;;;;24.03;57.49;101334.72;4999247;28;20054;-82
2022/05/15 05:29:54;;;;;;;6.72;5.93;;;;;;;24.03;57.23;101326.63;4999429;28;20042;-81
2022/05/15 05:32:22;;;;;;;6.13;5.55;;;;;;;24.04;57.27;101332.88;4997708;28;20063;-81
2022/05/15 05:34:49;;;;;;;6.28;5.68;;;;;;;24.03;57.48;101328.47;4998606;28;20050;-81
2022/05/15 05:37:17;;;;;;;8.15;5.68;;;;;;;24.04;57.18;101330.16;4997616;28;20057;-81
2022/05/15 05:39:45;;;;;;;7.00;6.28;;;;;;;24.04;57.48;101335.56;4998624;28;20046;-81
2022/05/15 05:42:13;;;;;;;7.07;5.88;;;;;;;24.03;57.42;101332.03;4996793;28;20042;-82
2022/05/15 05:44:40;;;;;;;8.48;6.28;;;;;;;24.03;57.20;101340.13;4996882;28;20050;-82
2022/05/15 05:47:08;;;;;;;8.95;5.93;;;;;;;24.03;57.57;101336.59;4998615;28;20050;-81
2022/05/15 05:49:35;;;;;;;6.18;5.57;;;;;;;24.03;57.48;101332.03;4999623;28;20043;-82
2022/05/15 05:52:04;;;;;;;6.07;5.28;;;;;;;24.04;57.42;101335.56;4998550;28;20046;-82
2022/05/15 05:54:31;;;;;;;6.85;6.10;;;;;;;24.04;57.43;101332.88;4998487;28;20069;-82
2022/05/15 05:56:59;;;;;;;5.95;5.40;;;;;;;24.03;57.29;101329.31;4998007;28;20050;-81
2022/05/15 05:59:26;;;;;;;6.70;5.68;;;;;;;24.03;57.56;101329.31;4995680;28;20061;-81
2022/05/15 06:01:53;;;;;;;10.13;6.15;;;;;;;24.03;57.53;101333.88;4997425;28;20046;-81
2022/05/15 06:04:40;;;;;;;8.32;5.82;;;;;;;24.03;57.51;101334.72;4996702;28;20057;-81
2022/05/15 06:07:10;;;;;;;6.78;5.70;;;;;;;24.04;57.09;101330.16;4996480;28;20501;-80
2022/05/15 06:09:43;;;;;;;7.82;6.15;;;;;;;24.03;57.49;101340.13;4997309;28;20494;-81
2022/05/15 06:12:12;;;;;;;6.63;6.03;;;;;;;24.02;57.22;101330.31;4996537;28;20068;-82
2022/05/15 06:14:40;;;;;;;8.77;6.47;;;;;;;24.03;57.27;101332.03;4996915;28;20386;-82
2022/05/15 06:17:08;;;;;;;8.27;5.93;;;;;;;24.03;57.20;101337.44;5011075;28;20050;-81
2022/05/15 06:19:35;;;;;;;6.38;5.47;;;;;;;24.03;57.25;101339.28;4996800;28;20483;-81
2022/05/15 06:22:03;;;;;;;7.20;6.50;;;;;;;24.03;57.27;101345.56;4996007;28;20047;-81
2022/05/15 06:24:31;;;;;;;6.20;5.60;;;;;;;24.03;57.09;101345.56;4997512;28;20409;-82
2022/05/15 06:26:59;;;;;;;9.00;6.32;;;;;;;24.03;57.16;101350.13;4995951;28;20050;-82
2022/05/15 06:29:27;;;;;;;6.55;5.72;;;;;;;24.03;57.27;101350.97;4997330;28;20402;-81
2022/05/15 06:31:54;;;;;;;7.07;5.60;;;;;;;24.04;57.11;101343.69;4997141;28;20398;-81
2022/05/15 06:34:22;;;;;;;7.55;5.85;;;;;;;24.03;57.37;101350.97;4997359;28;20061;-81
2022/05/15 06:36:49;;;;;;;7.13;5.47;;;;;;;24.03;57.34;101340.13;4997645;28;20057;-82
2022/05/15 06:39:17;;;;;;;6.70;5.15;;;;;;;24.04;57.50;101346.41;4997465;28;20049;-81
2022/05/15 06:41:50;;;;;;;7.57;5.90;;;;;;;24.03;57.33;101339.28;4997875;28;20047;-82
2022/05/15 06:44:27;;;;;;;6.35;5.75;;;;;;;24.04;57.18;101346.41;4996367;28;20054;-82
2022/05/15 06:46:56;;;;;;;6.57;5.95;;;;;;;24.05;57.16;101348.09;4997908;28;20069;-82
2022/05/15 06:49:23;;;;;;;6.78;6.07;;;;;;;24.04;57.29;101347.25;4997260;28;20043;-82
2022/05/15 06:51:51;;;;;;;6.65;6.03;;;;;;;24.04;57.10;101346.41;4998471;28;20069;-82
2022/05/15 06:54:18;;;;;;;6.53;5.85;;;;;;;24.04;57.26;101352.66;4997505;28;20068;-83
2022/05/15 06:59:38;;;;;;;6.68;5.45;;;;;;;24.05;57.00;101350.78;4997377;28;20053;-83
2022/05/15 07:02:06;;;;;;;6.70;5.97;;;;;;;24.05;57.24;101354.34;4996586;28;20054;-82
2022/05/15 07:04:33;;;;;;;6.68;5.13;;;;;;;24.05;57.25;101339.97;4996815;28;20046;-82
2022/05/15 07:07:00;;;;;;;6.75;5.93;;;;;;;24.04;57.42;101336.44;5011790;28;20065;-82
2022/05/15 07:09:29;;;;;;;6.30;5.70;;;;;;;24.04;57.18;101339.13;4997035;28;20046;-82
2022/05/15 07:11:57;;;;;;;6.55;5.60;;;;;;;24.05;57.01;101348.94;4997181;28;20061;-82
2022/05/15 07:14:25;;;;;;;8.05;6.13;;;;;;;24.04;56.96;101341.84;4996196;28;20051;-82
2022/05/15 07:17:02;;;;;;;5.80;5.20;;;;;;;24.05;56.86;101342.69;4995099;28;20057;-82
2022/05/15 07:19:31;;;;;;;7.18;5.45;;;;;;;24.05;57.12;101339.97;4995994;28;20061;-82
2022/05/15 07:21:58;;;;;;;6.18;5.57;;;;;;;24.06;56.88;101341.66;5012074;28;20069;-82
2022/05/15 07:24:26;;;;;;;6.50;5.90;;;;;;;24.05;57.00;101334.56;4996523;28;20069;-81
2022/05/15 07:26:53;;;;;;;6.18;5.57;;;;;;;24.05;57.13;101343.53;5011102;28;20073;-81
2022/05/15 07:29:24;;;;;;;8.10;5.85;;;;;;;24.06;57.10;101341.66;5009673;28;20055;-81
2022/05/15 07:31:53;;;;;;;6.40;5.80;;;;;;;24.04;57.13;101347.25;4995681;28;20053;-82
2022/05/15 07:34:21;;;;;;;6.30;5.70;;;;;;;24.04;56.98;101341.84;4994556;28;20058;-81
2022/05/15 07:36:50;;;;;;;7.50;5.88;;;;;;;24.06;57.13;101347.09;4995656;28;20054;-82
2022/05/15 07:39:19;;;;;;;6.95;6.25;;;;;;;24.06;57.28;101342.53;4994222;28;20065;-82
2022/05/15 07:41:48;;;;;;;6.60;5.93;;;;;;;24.06;57.16;101345.22;4995470;28;20050;-81
2022/05/15 07:44:15;;;;;;;6.35;5.75;;;;;;;24.06;56.90;101341.66;4996107;28;20061;-81
2022/05/15 07:46:43;;;;;;;6.22;5.45;;;;;;;24.06;56.97;101338.97;4995504;28;20058;-82
2022/05/15 07:49:12;;;;;;;6.25;5.65;;;;;;;24.06;57.12;101339.81;4994297;28;20509;-81
2022/05/15 07:51:44;;;;;;;6.35;5.72;;;;;;;24.06;57.25;101333.56;4994203;28;20050;-81
2022/05/15 07:54:16;;;;;;;7.28;5.88;;;;;;;24.07;56.95;101333.44;4994169;28;20057;-81
2022/05/15 07:56:45;;;;;;;6.75;6.05;;;;;;;24.07;57.15;101330.72;4994139;28;20061;-81
2022/05/15 07:59:12;;;;;;;6.13;5.53;;;;;;;24.07;56.92;101330.72;4994043;28;20039;-81
2022/05/15 08:01:41;;;;;;;6.25;5.63;;;;;;;24.07;56.84;101330.72;4994979;28;20061;-80
2022/05/15 08:04:09;;;;;;;7.35;5.28;;;;;;;24.09;57.32;101327.84;4978113;28;20065;-84
2022/05/15 08:09:23;;;;;;;5.72;5.18;;;;;;;24.12;57.21;101332.97;4994014;28;20042;-82
2022/05/15 08:11:50;;;;;;;7.15;5.88;;;;;;;24.13;57.25;101326.56;4993179;28;20054;-85
2022/05/15 08:14:18;;;;;;;8.32;5.90;;;;;;;24.13;56.79;101327.41;4994060;28;20050;-84
2022/05/15 08:16:46;;;;;;;6.55;5.60;;;;;;;24.15;56.75;101321.84;4994334;28;20050;-82
2022/05/15 08:24:45;;;;;;;6.00;5.43;;;;;;;24.20;57.13;101318.69;4993585;28;20513;-80
2022/05/15 08:27:12;;;;;;;7.25;5.95;;;;;;;24.20;56.81;101322.25;4994125;28;20052;-81
2022/05/15 08:29:40;;;;;;;6.70;6.05;;;;;;;24.20;55.21;101321.41;4990689;28;20047;-82
2022/05/15 08:32:08;;;;;;;8.20;6.03;;;;;;;24.19;53.81;101325.97;4994820;28;20126;-80
2022/05/15 08:34:40;;;;;;;10.40;5.97;;;;;;;24.18;54.26;101317.00;4995244;28;20649;-81
2022/05/15 08:37:07;;;;;;;7.90;6.13;;;;;;;24.20;53.71;101315.97;4996205;28;20053;-81
2022/05/15 08:39:35;;;;;;;8.48;6.05;;;;;;;24.19;54.23;101315.13;4994666;28;20057;-80
2022/05/15 08:42:41;;;;;;;6.93;5.57;;;;;;;24.21;55.79;101315.81;4995766;28;20054;-81
2022/05/15 08:45:14;;;;;;;8.70;6.05;;;;;;;24.23;55.68;101315.69;4995201;28;20058;-87
2022/05/15 08:47:47;;;;;;;7.90;6.10;;;;;;;24.24;55.50;101306.56;4979346;28;20053;-91
2022/05/15 08:50:17;;;;;;;9.73;6.43;;;;;;;24.24;54.41;101312.81;4975396;28;20047;-95
2022/05/15 08:53:04;;;;;;;8.60;5.80;;;;;;;24.26;54.50;101307.25;4959374;28;20062;-92
2022/05/15 08:55:44;;;;;;;9.60;6.60;;;;;;;24.26;53.71;101307.25;4959641;28;20490;-86
2022/05/15 08:58:30;;;;;;;8.85;6.65;;;;;;;24.26;52.65;101309.94;4961125;28;20062;-96
2022/05/15 09:00:57;;;;;;;8.90;7.28;;;;;;;24.23;52.01;101308.41;4960741;28;20055;-82
2022/05/15 09:03:33;;;;;;;10.98;6.47;;;;;;;24.24;52.34;101318.22;4975485;28;20051;-85
2022/05/15 09:06:08;;;;;;;10.98;7.68;;;;;;;24.23;51.75;101310.28;4976099;28;20046;-84
2022/05/15 09:08:45;;;;;;;9.73;6.95;;;;;;;24.22;51.67;101313.97;4974798;28;20407;-83
2022/05/15 09:11:17;;;;;;;8.48;6.30;;;;;;;24.21;51.52;101314.97;4973903;28;20062;-83
2022/05/15 09:13:55;;;;;;;8.27;7.03;;;;;;;24.20;51.30;101316.84;4972932;28;20051;-82
2022/05/15 09:16:25;;;;;;;9.55;6.30;;;;;;;24.20;51.48;101313.28;4972317;28;20066;-81
2022/05/15 09:19:06;;;;;;;9.80;6.72;;;;;;;24.21;52.19;101317.69;4974051;28;20502;-77
2022/05/15 09:21:34;;;;;;;9.40;7.28;;;;;;;24.22;52.28;101313.97;4974888;28;20511;-80
2022/05/15 09:24:19;;;;;;;9.88;6.95;;;;;;;24.23;52.20;101310.28;4974618;28;20054;-81
2022/05/15 09:26:47;;;;;;;9.05;6.57;;;;;;;24.23;52.85;101307.56;4974328;28;20063;-82
2022/05/15 09:29:22;;;;;;;8.27;6.72;;;;;;;24.25;53.19;101305.53;4981416;28;20049;-84
2022/05/15 09:31:50;;;;;;;8.70;6.38;;;;;;;24.28;53.36;101305.25;4995187;28;20510;-88
2022/05/15 09:34:21;;;;;;;7.38;6.30;;;;;;;24.31;53.08;101299.53;4995272;28;20046;-84
2022/05/15 09:36:51;;;;;;;7.00;6.15;;;;;;;24.33;53.49;101303.78;4977916;28;20507;-79
2022/05/15 09:39:28;;;;;;;9.05;6.50;;;;;;;24.35;53.49;101307.19;4974019;28;20486;-82
2022/05/15 09:45:25;;;;;;;9.73;6.82;;;;;;;24.36;53.20;101302.63;4974338;28;20058;-81
2022/05/15 09:47:53;;;;;;;9.35;6.95;;;;;;;24.36;53.39;101302.63;4974386;28;20043;-80
2022/05/15 09:50:42;;;;;;;8.73;6.80;;;;;;;24.35;53.23;101301.78;4975615;28;20058;-79
2022/05/15 09:53:22;;;;;;;9.48;7.40;;;;;;;24.35;52.95;101296.38;4978454;28;20046;-81
2022/05/15 09:56:04;;;;;;;13.10;7.75;;;;;;;24.35;53.53;101293.66;4977312;28;20414;-81
2022/05/15 09:58:41;;;;;;;10.68;8.10;;;;;;;24.36;53.87;101289.09;4976599;28;20050;-82
2022/05/15 10:01:33;;;;;;;14.43;8.05;;;;;;;24.36;53.82;101298.06;4978181;28;20047;-82
2022/05/15 10:04:03;;;;;;;9.10;6.93;;;;;;;24.36;53.98;101291.81;4976534;28;20050;-79
2022/05/15 10:06:37;;;;;;;8.77;6.63;;;;;;;24.35;54.19;101285.53;4977833;28;20518;-81
2022/05/15 10:09:28;;;;;;;10.27;7.05;;;;;;;24.37;54.36;101285.38;4977504;28;20050;-81
2022/05/15 10:12:01;;;;;;;9.55;6.75;;;;;;;24.37;54.60;101290.78;4977638;28;20114;-80
2022/05/15 10:14:40;;;;;;;15.13;7.55;;;;;;;24.38;54.77;101295.22;4978035;28;20498;-80
2022/05/15 10:17:09;;;;;;;8.60;6.70;;;;;;;24.38;54.80;101290.66;4977794;28;20054;-80
2022/05/15 10:19:51;;;;;;;11.35;7.18;;;;;;;24.38;54.54;101290.66;4975297;28;20399;-80
2022/05/15 10:22:36;;;;;;;10.25;7.55;;;;;;;24.39;54.44;101286.13;4977070;28;20055;-80
2022/05/15 10:25:46;;;;;;;12.90;7.55;;;;;;;24.39;54.54;101281.56;4976826;28;20070;-78
2022/05/15 10:28:25;;;;;;;10.77;7.25;;;;;;;24.40;54.76;101288.66;4978239;28;20062;-83
2022/05/15 10:31:17;;;;;;;9.05;7.40;;;;;;;24.41;54.67;101276.81;4988010;28;20077;-82
2022/05/15 10:33:50;;;;;;;14.95;7.82;;;;;;;24.41;54.90;101281.41;4976043;28;20043;-84
2022/05/15 10:36:25;;;;;;;9.75;7.85;;;;;;;24.43;54.81;101271.28;4991794;28;20154;-82
2022/05/15 10:39:14;;;;;;;8.60;7.68;;;;;;;24.43;54.91;101273.97;4994291;28;20050;-83
2022/05/15 10:41:48;;;;;;;9.32;7.00;;;;;;;24.44;55.05;101272.97;4976662;28;20055;-83
2022/05/15 10:44:21;;;;;;;8.90;7.15;;;;;;;24.45;55.12;101269.25;4977684;28;20047;-84
2022/05/15 10:47:12;;;;;;;8.30;7.30;;;;;;;24.46;55.19;101272.81;4975897;28;20078;-84
2022/05/15 10:49:58;;;;;;;8.48;7.57;;;;;;;24.45;55.03;101266.53;4975920;28;20047;-81
2022/05/15 10:52:37;;;;;;;10.98;6.90;;;;;;;24.47;54.99;101255.56;4976268;28;20046;-81
2022/05/15 10:58:28;;;;;;;11.70;7.57;;;;;;;24.48;55.48;101260.81;4976587;28;20050;-80
2022/05/15 11:01:04;;;;;;;12.93;8.48;;;;;;;24.49;55.12;101248.13;4976912;28;20046;-81
2022/05/15 11:03:43;;;;;;;14.43;8.70;;;;;;;24.49;55.19;101246.28;4976931;28;20050;-81
2022/05/15 11:06:17;;;;;;;16.35;9.32;;;;;;;24.49;55.29;101246.28;4978088;28;20050;-81
2022/05/15 11:08:55;;;;;;;12.00;8.35;;;;;;;24.49;55.46;101240.03;4997352;28;20482;-81
2022/05/15 11:12:06;;;;;;;11.88;7.20;;;;;;;24.50;55.21;101245.25;4994108;28;20050;-82
2022/05/15 11:14:56;;;;;;;14.80;7.75;;;;;;;24.51;55.68;101246.13;4996304;28;20053;-81
2022/05/15 11:17:32;;;;;;;9.75;6.93;;;;;;;24.51;55.63;101247.00;5012617;28;20061;-82
2022/05/15 11:20:15;;;;;;;10.73;7.60;;;;;;;24.51;55.68;101241.56;4979763;28;20114;-85
2022/05/15 11:22:48;;;;;;;13.20;7.20;;;;;;;24.52;55.47;101237.84;5013039;28;20169;-80
2022/05/15 11:25:27;;;;;;;12.23;6.80;;;;;;;24.53;55.68;101236.84;5012861;28;20077;-81
2022/05/15 11:28:03;;;;;;;10.27;7.13;;;;;;;24.52;55.59;101237.84;4996500;28;20050;-81
2022/05/15 11:30:33;;;;;;;9.77;6.80;;;;;;;24.53;55.46;101242.25;5013366;28;20053;-82
2022/05/15 11:33:11;;;;;;;10.23;7.07;;;;;;;24.55;55.95;101234.84;5009848;28;20070;-79
2022/05/15 11:35:41;;;;;;;10.13;6.88;;;;;;;24.54;55.78;101241.25;5013376;28;20054;-80
2022/05/15 11:38:29;;;;;;;14.07;7.90;;;;;;;24.55;55.88;101236.69;5013585;28;20168;-80
2022/05/15 11:40:57;;;;;;;10.75;7.55;;;;;;;24.55;55.92;101229.44;5012497;28;20054;-81
2022/05/15 11:43:28;;;;;;;11.13;6.85;;;;;;;24.56;55.92;101233.00;5011486;28;20076;-81
2022/05/15 11:46:09;;;;;;;10.63;6.97;;;;;;;24.56;56.14;101228.41;5013223;28;20521;-81
2022/05/15 11:48:43;;;;;;;9.35;7.10;;;;;;;24.57;55.90;101224.69;4995219;28;20067;-81
2022/05/15 11:51:13;;;;;;;10.55;7.53;;;;;;;24.56;56.04;101214.03;4975498;28;20049;-80
2022/05/15 11:53:53;;;;;;;7.93;5.78;;;;;;;24.57;56.00;101215.72;4975255;28;20050;-81
2022/05/15 11:56:21;;;;;;;12.30;7.10;;;;;;;24.57;56.77;101211.16;4975494;28;20054;-80
2022/05/15 11:58:57;;;;;;;10.07;7.35;;;;;;;24.57;56.25;101208.47;4975698;28;20047;-81
2022/05/15 12:01:24;;;;;;;9.45;6.07;;;;;;;24.58;56.26;101210.16;4974902;28;20046;-80
2022/05/15 12:03:53;;;;;;;9.57;6.50;;;;;;;24.58;56.47;101210.16;4975779;28;20510;-79